createdAt,value
2018-11-03T00:01:08.785Z,5.17
2018-11-03T00:03:39.450Z,5.22
2018-11-03T00:06:10.136Z,5.21
2018-11-03T00:08:40.037Z,5.18
2018-11-03T00:11:09.818Z,5.13
2018-11-03T00:13:40.454Z,5.08
2018-11-03T00:16:10.252Z,5.08
2018-11-03T00:18:40.143Z,4.98
2018-11-03T00:21:10.212Z,5.05
2018-11-03T00:23:40.112Z,4.99
2018-11-03T00:26:10.620Z,5.06
2018-11-03T00:28:40.567Z,4.99
2018-11-03T00:31:10.828Z,4.96
2018-11-03T00:33:40.713Z,4.96
2018-11-03T00:36:10.715Z,4.90
2018-11-03T00:38:40.822Z,4.92
2018-11-03T00:41:10.628Z,4.84
2018-11-03T00:43:40.568Z,4.90
2018-11-03T00:46:10.623Z,4.84
2018-11-03T00:48:40.310Z,4.90
2018-11-03T00:51:10.142Z,4.88
2018-11-03T00:53:39.944Z,4.80
2018-11-03T00:56:09.728Z,4.83
2018-11-03T00:58:40.377Z,4.80
2018-11-03T01:01:10.161Z,4.88
2018-11-03T01:03:39.893Z,4.82
2018-11-03T01:06:09.634Z,4.83
2018-11-03T01:08:39.451Z,4.89
2018-11-03T01:11:09.324Z,4.84
2018-11-03T01:13:39.252Z,4.79
2018-11-03T01:16:09.095Z,4.79
2018-11-03T01:18:38.852Z,4.70
2018-11-03T01:21:08.773Z,4.71
2018-11-03T01:23:38.573Z,4.72
2018-11-03T01:26:08.206Z,4.76
2018-11-03T01:28:37.987Z,4.72
2018-11-03T01:31:07.856Z,4.76
2018-11-03T01:33:37.783Z,4.69
2018-11-03T01:36:07.501Z,4.79
2018-11-03T01:38:37.421Z,4.73
2018-11-03T01:41:07.176Z,4.60
2018-11-03T01:43:37.047Z,4.63
2018-11-03T01:46:07.253Z,4.59
2018-11-03T01:48:37.092Z,4.58
2018-11-03T01:51:07.245Z,4.37
2018-11-03T01:53:37.090Z,4.23
2018-11-03T01:56:07.271Z,4.09
2018-11-03T01:58:37.121Z,4.00
2018-11-03T02:01:07.185Z,3.92
2018-11-03T02:03:36.954Z,3.82
2018-11-03T02:06:07.014Z,3.78
2018-11-03T02:08:36.781Z,3.73
2018-11-03T02:11:06.610Z,3.71
2018-11-03T02:13:36.302Z,3.61
2018-11-03T02:16:06.576Z,3.63
2018-11-03T02:18:36.703Z,3.61
2018-11-03T02:21:06.914Z,3.59
2018-11-03T02:23:36.691Z,3.54
2018-11-03T02:26:06.596Z,3.61
2018-11-03T02:28:36.591Z,3.64
2018-11-03T02:31:06.989Z,3.51
2018-11-03T02:33:36.848Z,3.47
2018-11-03T02:36:06.691Z,3.49
2018-11-03T02:38:36.577Z,3.44
2018-11-03T02:41:06.474Z,3.40
2018-11-03T02:43:36.310Z,3.35
2018-11-03T02:46:06.386Z,3.30
2018-11-03T02:48:36.276Z,3.31
2018-11-03T02:51:06.266Z,3.35
2018-11-03T02:53:36.461Z,3.29
2018-11-03T02:56:06.974Z,3.24
2018-11-03T02:58:36.885Z,3.29
2018-11-03T03:01:07.355Z,3.24
2018-11-03T03:03:37.206Z,3.45
2018-11-03T03:06:07.789Z,3.52
2018-11-03T03:08:44.385Z,3.55
2018-11-03T03:11:14.110Z,3.78
2018-11-03T03:13:43.832Z,3.89
2018-11-03T03:16:14.212Z,3.96
2018-11-03T03:18:43.919Z,3.94
2018-11-03T03:21:13.660Z,4.11
2018-11-03T03:23:43.515Z,4.05
2018-11-03T03:26:14.036Z,4.00
2018-11-03T03:28:43.965Z,4.00
2018-11-03T03:31:13.687Z,3.97
2018-11-03T03:33:43.720Z,4.08
2018-11-03T03:36:13.570Z,4.04
2018-11-03T03:38:43.518Z,4.02
2018-11-03T03:41:13.352Z,4.02
2018-11-03T03:43:43.186Z,3.98
2018-11-03T03:46:12.965Z,4.02
2018-11-03T03:48:43.028Z,3.96
2018-11-03T03:51:12.888Z,4.02
2018-11-03T03:53:42.556Z,4.05
2018-11-03T03:56:12.561Z,3.91
2018-11-03T03:58:42.355Z,3.91
2018-11-03T04:01:12.063Z,3.85
2018-11-03T04:03:42.020Z,3.92
2018-11-03T04:06:12.306Z,3.96
2018-11-03T04:08:42.469Z,3.91
2018-11-03T04:11:12.280Z,3.87
2018-11-03T04:13:42.004Z,3.92
2018-11-03T04:16:11.797Z,3.86
2018-11-03T04:18:42.870Z,3.84
2018-11-03T04:21:16.638Z,3.84
2018-11-03T04:23:46.404Z,3.83
2018-11-03T04:26:16.142Z,3.91
2018-11-03T04:28:45.935Z,3.78
2018-11-03T04:31:15.737Z,3.84
2018-11-03T04:33:46.030Z,3.88
2018-11-03T04:36:15.779Z,3.86
2018-11-03T04:38:45.574Z,3.80
2018-11-03T04:41:15.376Z,3.84
2018-11-03T04:43:45.285Z,3.77
2018-11-03T04:46:15.220Z,3.74
2018-11-03T04:48:44.961Z,3.55
2018-11-03T04:51:14.722Z,3.49
2018-11-03T04:53:44.497Z,3.39
2018-11-03T04:56:14.222Z,3.33
2018-11-03T04:58:43.915Z,3.50
2018-11-03T05:01:14.448Z,3.73
2018-11-03T05:03:44.198Z,3.76
2018-11-03T05:06:13.970Z,3.85
2018-11-03T05:08:43.675Z,3.80
2018-11-03T05:11:13.392Z,3.82
2018-11-03T05:13:43.236Z,3.75
2018-11-03T05:16:12.960Z,3.76
2018-11-03T05:18:43.072Z,3.80
2018-11-03T05:21:12.960Z,3.81
2018-11-03T05:23:42.679Z,3.75
2018-11-03T05:26:12.707Z,3.84
2018-11-03T05:28:42.438Z,3.85
2018-11-03T05:31:12.311Z,3.84
2018-11-03T05:33:42.240Z,3.86
2018-11-03T05:36:11.972Z,3.81
2018-11-03T05:38:41.641Z,3.63
2018-11-03T05:41:11.369Z,3.54
2018-11-03T05:43:41.167Z,3.62
2018-11-03T05:46:10.895Z,3.50
2018-11-03T05:48:40.686Z,3.49
2018-11-03T05:51:10.840Z,3.35
2018-11-03T05:53:40.747Z,3.28
2018-11-03T05:56:10.819Z,3.31
2018-11-03T05:58:40.613Z,3.28
2018-11-03T06:01:10.624Z,3.20
2018-11-03T06:03:40.580Z,3.14
2018-11-03T06:06:10.369Z,3.22
2018-11-03T06:08:40.898Z,3.18
2018-11-03T06:11:10.946Z,3.18
2018-11-03T06:13:40.668Z,3.16
2018-11-03T06:16:10.703Z,3.25
2018-11-03T06:18:40.860Z,3.20
2018-11-03T06:21:11.131Z,3.20
2018-11-03T06:23:40.951Z,3.22
2018-11-03T06:26:11.009Z,3.28
2018-11-03T06:28:40.766Z,3.35
2018-11-03T06:31:10.920Z,3.24
2018-11-03T06:33:40.677Z,3.16
2018-11-03T06:36:10.781Z,3.23
2018-11-03T06:38:40.592Z,3.28
2018-11-03T06:41:10.625Z,3.30
2018-11-03T06:43:40.376Z,3.28
2018-11-03T06:46:10.497Z,3.27
2018-11-03T06:48:40.363Z,3.29
2018-11-03T06:51:10.358Z,3.29
2018-11-03T06:53:40.231Z,3.43
2018-11-03T06:56:10.138Z,3.46
2018-11-03T06:58:39.938Z,3.54
2018-11-03T07:01:09.824Z,3.59
2018-11-03T07:03:39.521Z,3.73
2018-11-03T07:06:09.434Z,3.77
2018-11-03T07:08:39.256Z,3.84
2018-11-03T07:11:09.263Z,3.95
2018-11-03T07:13:39.024Z,4.08
2018-11-03T07:16:09.244Z,4.23
2018-11-03T07:18:39.011Z,4.31
2018-11-03T07:21:08.720Z,4.44
2018-11-03T07:23:38.395Z,4.59
2018-11-03T07:26:08.391Z,4.76
2018-11-03T07:28:38.141Z,4.80
2018-11-03T07:31:07.911Z,4.99
2018-11-03T07:33:37.722Z,4.99
2018-11-03T07:36:08.274Z,5.15
2018-11-03T07:38:37.992Z,5.10
2018-11-03T07:41:07.877Z,5.35
2018-11-03T07:43:38.050Z,5.37
2018-11-03T07:46:07.844Z,5.43
2018-11-03T07:48:37.701Z,5.57
2018-11-03T07:51:07.628Z,5.54
2018-11-03T07:53:37.407Z,5.57
2018-11-03T07:56:08.005Z,5.68
2018-11-03T07:58:38.524Z,5.92
2018-11-03T08:01:08.393Z,6.12
2018-11-03T08:03:38.249Z,6.04
2018-11-03T08:06:08.079Z,6.30
2018-11-03T08:08:37.897Z,6.01
2018-11-03T08:11:07.871Z,6.28
2018-11-03T08:13:38.116Z,6.38
2018-11-03T08:16:08.043Z,6.31
2018-11-03T08:18:38.210Z,6.48
2018-11-03T08:21:08.205Z,6.54
2018-11-03T08:23:38.101Z,6.59
2018-11-03T08:26:08.169Z,6.56
2018-11-03T08:28:38.402Z,6.80
2018-11-03T08:31:08.185Z,6.65
2018-11-03T08:33:38.250Z,6.60
2018-11-03T08:36:08.238Z,7.07
2018-11-03T08:38:38.075Z,6.90
2018-11-03T08:41:08.557Z,6.62
2018-11-03T08:43:38.616Z,6.73
2018-11-03T08:46:09.265Z,6.68
2018-11-03T08:48:39.085Z,6.99
2018-11-03T08:51:08.876Z,7.04
2018-11-03T08:53:38.665Z,7.10
2018-11-03T08:56:08.475Z,7.00
2018-11-03T08:58:38.259Z,6.76
2018-11-03T09:01:08.052Z,7.00
2018-11-03T09:03:37.838Z,6.73
2018-11-03T09:06:07.845Z,6.94
2018-11-03T09:08:37.716Z,6.66
2018-11-03T09:11:07.575Z,6.77
2018-11-03T09:13:38.023Z,6.95
2018-11-03T09:16:08.479Z,6.84
2018-11-03T09:18:39.124Z,6.81
2018-11-03T09:21:09.677Z,6.97
2018-11-03T09:23:40.181Z,7.34
2018-11-03T09:26:10.061Z,7.60
2018-11-03T09:28:40.163Z,7.65
2018-11-03T09:31:10.097Z,7.70
2018-11-03T09:33:39.897Z,7.70
2018-11-03T09:36:09.761Z,7.76
2018-11-03T09:38:39.615Z,7.51
2018-11-03T09:41:09.377Z,7.62
2018-11-03T09:43:39.206Z,7.63
2018-11-03T09:46:08.996Z,7.85
2018-11-03T09:48:38.864Z,7.47
2018-11-03T09:51:09.162Z,7.77
2018-11-03T09:53:39.174Z,7.95
2018-11-03T09:56:08.989Z,8.19
2018-11-03T09:58:38.936Z,8.28
2018-11-03T10:01:08.984Z,8.29
2018-11-03T10:03:38.793Z,8.29
2018-11-03T10:06:08.707Z,8.20
2018-11-03T10:08:38.635Z,8.16
2018-11-03T10:11:08.644Z,7.93
2018-11-03T10:13:38.449Z,8.30
2018-11-03T10:16:08.350Z,8.28
2018-11-03T10:18:37.980Z,7.98
2018-11-03T10:21:07.748Z,7.93
2018-11-03T10:23:37.747Z,8.25
2018-11-03T10:26:07.592Z,7.87
2018-11-03T10:28:37.439Z,8.16
2018-11-03T10:31:07.275Z,7.92
2018-11-03T10:33:37.498Z,8.14
2018-11-03T10:36:07.696Z,7.91
2018-11-03T10:38:37.511Z,8.19
2018-11-03T10:41:07.309Z,8.45
2018-11-03T10:43:37.107Z,8.33
2018-11-03T10:46:07.183Z,8.28
2018-11-03T10:48:37.006Z,8.43
2018-11-03T10:51:08.635Z,8.45
2018-11-03T10:53:38.806Z,8.24
2018-11-03T10:56:08.433Z,8.41
2018-11-03T10:58:38.249Z,8.64
2018-11-03T11:01:13.197Z,8.78
2018-11-03T11:04:45.897Z,8.43
2018-11-03T11:07:20.792Z,8.93
2018-11-03T11:09:55.756Z,8.95
2018-11-03T11:12:30.812Z,8.92
2018-11-03T11:15:00.718Z,8.60
2018-11-03T11:17:31.089Z,8.57
2018-11-03T11:20:00.851Z,8.76
2018-11-03T11:22:30.979Z,8.66
2018-11-03T11:25:02.180Z,9.04
2018-11-03T11:27:32.300Z,9.13
2018-11-03T11:30:02.197Z,9.03
2018-11-03T11:32:32.332Z,8.90
2018-11-03T11:35:02.233Z,8.95
2018-11-03T11:37:32.501Z,8.78
2018-11-03T11:40:02.254Z,8.73
2018-11-03T11:42:32.806Z,8.76
2018-11-03T11:45:02.659Z,9.07
2018-11-03T11:47:32.956Z,9.00
2018-11-03T11:50:03.116Z,9.16
2018-11-03T11:52:33.511Z,8.91
2018-11-03T11:55:03.532Z,9.04
2018-11-03T11:57:33.569Z,9.11
2018-11-03T12:00:03.394Z,9.31
2018-11-03T12:02:33.812Z,9.51
2018-11-03T12:05:03.564Z,9.39
2018-11-03T12:07:34.325Z,9.03
2018-11-03T12:10:04.387Z,9.15
2018-11-03T12:12:34.549Z,9.17
2018-11-03T12:15:04.497Z,9.37
2018-11-03T12:17:34.740Z,9.58
2018-11-03T12:20:04.608Z,9.67
2018-11-03T12:22:34.675Z,9.39
2018-11-03T12:25:05.288Z,9.37
2018-11-03T12:27:35.479Z,9.40
2018-11-03T12:30:08.623Z,9.43
2018-11-03T12:32:39.847Z,9.12
2018-11-03T12:35:10.202Z,9.28
2018-11-03T12:37:41.250Z,9.35
2018-11-03T12:40:16.255Z,9.45
2018-11-03T12:42:46.064Z,9.50
2018-11-03T12:45:16.587Z,9.55
2018-11-03T12:47:46.632Z,9.49
2018-11-03T12:50:18.325Z,9.47
2018-11-03T12:52:48.950Z,9.49
2018-11-03T12:55:18.909Z,9.41
2018-11-03T12:57:48.770Z,9.47
2018-11-03T13:00:18.864Z,9.51
2018-11-03T13:02:48.703Z,9.46
2018-11-03T13:05:18.936Z,9.55
2018-11-03T13:07:48.822Z,9.56
2018-11-03T13:10:18.745Z,9.57
2018-11-03T13:12:48.654Z,9.64
2018-11-03T13:15:18.505Z,9.63
2018-11-03T13:17:48.328Z,9.62
2018-11-03T13:20:18.120Z,9.58
2018-11-03T13:22:48.014Z,9.49
2018-11-03T13:25:17.707Z,9.62
2018-11-03T13:27:47.487Z,9.50
2018-11-03T13:30:17.313Z,9.61
2018-11-03T13:32:47.281Z,9.64
2018-11-03T13:35:17.151Z,9.58
2018-11-03T13:37:46.982Z,9.72
2018-11-03T13:40:17.038Z,9.71
2018-11-03T13:42:47.054Z,9.58
2018-11-03T13:45:17.665Z,9.52
2018-11-03T13:47:47.599Z,9.66
2018-11-03T13:50:18.198Z,9.59
2018-11-03T13:52:48.867Z,9.53
2018-11-03T13:55:18.671Z,9.58
2018-11-03T13:57:48.454Z,9.54
2018-11-03T14:00:19.152Z,9.53
2018-11-03T14:02:49.541Z,9.49
2018-11-03T14:05:20.041Z,9.53
2018-11-03T14:07:50.031Z,9.51
2018-11-03T14:10:19.993Z,9.59
2018-11-03T14:12:49.818Z,9.50
2018-11-03T14:15:19.733Z,9.45
2018-11-03T14:17:49.616Z,9.57
2018-11-03T14:20:19.644Z,9.58
2018-11-03T14:22:49.432Z,9.61
2018-11-03T14:25:19.377Z,9.63
2018-11-03T14:27:50.050Z,9.61
2018-11-03T14:30:20.084Z,9.49
2018-11-03T14:32:49.903Z,9.45
2018-11-03T14:35:19.862Z,9.52
2018-11-03T14:37:49.711Z,9.41
2018-11-03T14:40:19.855Z,9.45
2018-11-03T14:42:49.850Z,9.35
2018-11-03T14:45:20.269Z,9.22
2018-11-03T14:47:50.218Z,9.29
2018-11-03T14:50:20.195Z,9.27
2018-11-03T14:52:50.229Z,9.32
2018-11-03T14:55:20.870Z,9.32
2018-11-03T14:57:50.816Z,9.30
2018-11-03T15:00:20.788Z,9.22
2018-11-03T15:02:50.951Z,9.13
2018-11-03T15:05:20.997Z,9.03
2018-11-03T15:07:51.147Z,8.99
2018-11-03T15:10:21.043Z,9.07
2018-11-03T15:12:51.045Z,9.04
2018-11-03T15:15:20.846Z,8.99
2018-11-03T15:17:51.120Z,8.95
2018-11-03T15:20:20.935Z,8.92
2018-11-03T15:22:51.126Z,8.89
2018-11-03T15:25:20.980Z,8.83
2018-11-03T15:27:51.418Z,8.77
2018-11-03T15:30:21.254Z,8.78
2018-11-03T15:32:51.531Z,8.65
2018-11-03T15:35:21.306Z,8.58
2018-11-03T15:37:52.398Z,8.51
2018-11-03T15:40:22.261Z,8.42
2018-11-03T15:42:52.764Z,8.38
2018-11-03T15:45:22.720Z,8.19
2018-11-03T15:47:52.842Z,8.10
2018-11-03T15:50:22.576Z,8.01
2018-11-03T15:52:53.620Z,8.03
2018-11-03T15:55:23.395Z,7.99
2018-11-03T15:57:53.840Z,7.98
2018-11-03T16:00:23.732Z,7.85
2018-11-03T16:02:54.350Z,7.74
2018-11-03T16:05:24.211Z,7.46
2018-11-03T16:07:54.694Z,7.66
2018-11-03T16:10:24.640Z,7.49
2018-11-03T16:12:55.059Z,7.15
2018-11-03T16:15:25.021Z,6.94
2018-11-03T16:17:55.574Z,6.82
2018-11-03T16:20:25.547Z,6.83
2018-11-03T16:22:56.018Z,6.69
2018-11-03T16:25:25.805Z,6.72
2018-11-03T16:27:56.476Z,6.71
2018-11-03T16:30:26.451Z,6.78
2018-11-03T16:32:56.759Z,6.57
2018-11-03T16:35:26.750Z,6.44
2018-11-03T16:37:57.015Z,6.48
2018-11-03T16:40:26.862Z,6.64
2018-11-03T16:42:57.280Z,6.57
2018-11-03T16:45:27.109Z,6.44
2018-11-03T16:47:57.327Z,6.28
2018-11-03T16:50:27.166Z,6.12
2018-11-03T16:52:57.456Z,6.01
2018-11-03T16:55:27.415Z,5.93
2018-11-03T16:57:57.587Z,5.92
2018-11-03T17:00:27.560Z,5.96
2018-11-03T17:02:57.815Z,5.91
2018-11-03T17:05:27.576Z,5.82
2018-11-03T17:07:57.840Z,5.74
2018-11-03T17:10:27.841Z,5.72
2018-11-03T17:12:58.109Z,5.62
2018-11-03T17:15:27.897Z,5.62
2018-11-03T17:17:58.381Z,5.66
2018-11-03T17:20:28.547Z,5.58
2018-11-03T17:22:58.731Z,5.52
2018-11-03T17:25:28.708Z,5.50
2018-11-03T17:27:58.810Z,5.47
2018-11-03T17:30:29.500Z,5.45
2018-11-03T17:32:59.867Z,5.54
2018-11-03T17:35:29.752Z,5.46
2018-11-03T17:37:59.817Z,5.36
2018-11-03T17:40:29.629Z,5.34
2018-11-03T17:43:00.563Z,5.31
2018-11-03T17:45:30.402Z,5.29
2018-11-03T17:48:01.149Z,5.27
2018-11-03T17:50:31.055Z,5.44
2018-11-03T17:53:02.920Z,5.48
2018-11-03T17:55:32.873Z,5.58
2018-11-03T17:58:03.346Z,5.62
2018-11-03T18:00:33.490Z,5.63
2018-11-03T18:03:03.706Z,5.49
2018-11-03T18:05:33.648Z,5.55
2018-11-03T18:08:03.809Z,5.30
2018-11-03T18:10:33.519Z,5.26
2018-11-03T18:13:03.648Z,5.25
2018-11-03T18:15:33.865Z,5.39
2018-11-03T18:18:04.115Z,5.15
2018-11-03T18:20:33.978Z,5.04
2018-11-03T18:23:04.193Z,5.05
2018-11-03T18:25:34.099Z,5.05
2018-11-03T18:28:04.340Z,4.94
2018-11-03T18:30:34.193Z,4.85
2018-11-03T18:33:10.669Z,4.77
2018-11-03T18:35:40.442Z,4.73
2018-11-03T18:38:10.320Z,4.70
2018-11-03T18:40:40.167Z,4.66
2018-11-03T18:43:10.109Z,4.73
2018-11-03T18:45:39.971Z,4.69
2018-11-03T18:48:09.891Z,4.55
2018-11-03T18:50:39.751Z,4.66
2018-11-03T18:53:09.511Z,4.69
2018-11-03T18:55:39.345Z,4.68
2018-11-03T18:58:09.488Z,4.56
2018-11-03T19:00:39.362Z,4.46
2018-11-03T19:03:09.303Z,4.43
2018-11-03T19:05:39.130Z,4.37
2018-11-03T19:08:09.078Z,4.51
2018-11-03T19:10:39.239Z,4.50
2018-11-03T19:13:09.886Z,4.60
2018-11-03T19:15:40.026Z,4.65
2018-11-03T19:18:10.142Z,4.61
2018-11-03T19:20:40.201Z,4.56
2018-11-03T19:23:10.641Z,4.55
2018-11-03T19:25:40.821Z,4.63
2018-11-03T19:28:10.686Z,4.57
2018-11-03T19:30:40.596Z,4.56
2018-11-03T19:33:10.626Z,4.49
2018-11-03T19:35:40.556Z,4.45
2018-11-03T19:38:10.959Z,4.38
2018-11-03T19:40:40.780Z,4.33
2018-11-03T19:43:11.114Z,4.40
2018-11-03T19:45:40.878Z,4.44
2018-11-03T19:48:11.173Z,4.37
2018-11-03T19:50:41.016Z,4.34
2018-11-03T19:53:11.274Z,4.28
2018-11-03T19:55:41.148Z,4.26
2018-11-03T19:58:11.909Z,4.25
2018-11-03T20:00:41.838Z,4.16
2018-11-03T20:03:12.963Z,4.18
2018-11-03T20:05:42.951Z,4.16
2018-11-03T20:08:13.059Z,4.08
2018-11-03T20:10:42.844Z,4.12
2018-11-03T20:13:13.215Z,4.11
2018-11-03T20:15:43.084Z,4.01
2018-11-03T20:18:13.345Z,4.02
2018-11-03T20:20:43.412Z,3.98
2018-11-03T20:23:13.589Z,4.02
2018-11-03T20:25:43.478Z,4.04
2018-11-03T20:28:13.679Z,3.95
2018-11-03T20:30:43.528Z,3.94
2018-11-03T20:33:13.903Z,3.96
2018-11-03T20:35:43.737Z,3.87
2018-11-03T20:38:13.985Z,3.73
2018-11-03T20:40:44.094Z,3.80
2018-11-03T20:43:14.400Z,3.70
2018-11-03T20:45:44.395Z,3.67
2018-11-03T20:48:14.900Z,3.65
2018-11-03T20:50:44.735Z,3.64
2018-11-03T20:53:15.035Z,3.69
2018-11-03T20:55:45.291Z,3.70
2018-11-03T20:58:15.529Z,3.69
2018-11-03T21:00:45.366Z,3.65
2018-11-03T21:03:15.828Z,3.58
2018-11-03T21:05:45.801Z,3.53
2018-11-03T21:08:16.239Z,3.48
2018-11-03T21:10:46.725Z,3.51
2018-11-03T21:13:17.625Z,3.44
2018-11-03T21:15:47.724Z,3.40
2018-11-03T21:18:17.919Z,3.38
2018-11-03T21:20:47.714Z,3.41
2018-11-03T21:23:17.988Z,3.39
2018-11-03T21:25:47.717Z,3.29
2018-11-03T21:28:17.774Z,3.29
2018-11-03T21:30:47.608Z,3.24
2018-11-03T21:33:17.963Z,3.20
2018-11-03T21:35:47.773Z,3.13
2018-11-03T21:38:17.868Z,3.15
2018-11-03T21:40:47.980Z,3.26
2018-11-03T21:43:18.017Z,3.17
2018-11-03T21:45:47.864Z,3.25
2018-11-03T21:48:19.352Z,3.15
2018-11-03T21:50:49.182Z,3.25
2018-11-03T21:53:19.385Z,3.14
2018-11-03T21:55:49.225Z,3.12
2018-11-03T21:58:19.273Z,3.13
2018-11-03T22:00:49.183Z,3.16
2018-11-03T22:03:19.763Z,3.07
2018-11-03T22:05:49.799Z,3.18
2018-11-03T22:08:19.914Z,3.16
2018-11-03T22:10:49.815Z,3.27
2018-11-03T22:13:19.873Z,3.20
2018-11-03T22:15:49.750Z,3.27
2018-11-03T22:18:20.061Z,3.22
2018-11-03T22:20:50.011Z,3.17
2018-11-03T22:23:19.947Z,3.15
2018-11-03T22:25:49.804Z,3.07
2018-11-03T22:28:19.898Z,3.11
2018-11-03T22:30:49.899Z,3.03
2018-11-03T22:33:19.781Z,3.13
2018-11-03T22:35:49.701Z,3.18
2018-11-03T22:38:19.632Z,3.02
2018-11-03T22:40:50.629Z,3.12
2018-11-03T22:43:20.521Z,2.97
2018-11-03T22:45:50.466Z,3.09
2018-11-03T22:48:20.494Z,3.08
2018-11-03T22:50:50.579Z,3.07
2018-11-03T22:53:20.579Z,3.06
2018-11-03T22:55:50.743Z,3.10
2018-11-03T22:58:20.799Z,3.03
2018-11-03T23:00:57.176Z,3.03
2018-11-03T23:03:27.662Z,3.06
2018-11-03T23:05:57.433Z,2.97
2018-11-03T23:08:27.192Z,2.93
2018-11-03T23:10:57.105Z,2.92
2018-11-03T23:13:26.970Z,2.90
2018-11-03T23:15:56.733Z,2.83
2018-11-03T23:18:27.082Z,2.78
2018-11-03T23:20:57.317Z,2.74
2018-11-03T23:23:27.612Z,2.70
2018-11-03T23:25:58.172Z,2.66
2018-11-03T23:28:28.245Z,2.69
2018-11-03T23:30:58.455Z,2.76
2018-11-03T23:33:29.569Z,2.68
2018-11-03T23:35:59.766Z,2.72
2018-11-03T23:38:29.993Z,2.65
2018-11-03T23:40:59.801Z,2.65
2018-11-03T23:43:29.682Z,2.79
2018-11-03T23:45:59.777Z,2.76
2018-11-03T23:48:29.909Z,2.77
2018-11-03T23:50:59.759Z,2.80
2018-11-03T23:53:30.198Z,2.80
2018-11-03T23:56:00.158Z,2.88
2018-11-03T23:58:30.551Z,2.78
